Pagrindinis puslapis
METAR-TAF:

METAR-TAF

Oro uostai :

Ankoridžas, Aliaska, Jungtinės Amerikos Valstijos

platuma: 61-10-28N, ilguma: 149-59-46W, Aukštis: 44 m

Dabartinis oras

Ataskaita buvo paskelbta 53 minutes, ne 10:53 UTC
Vėjas 17 kt iš Šiaurės su gūsio iki 23 kt
Temperatūra -12°C
Drėgmė 47%
Slėgis 1000 hPa
Matomumas: 16.1 km
Giedras dangus

METAR: PANC 251053Z 35017G23KT 10SM CLR M12/M21 A2953 RMK AO2 SLP002 T11221206

Laikas: 02:46 (11:46 UTC)

Prognozė

Ataskaita buvo paskelbta 26 minutes, ne 11:20 UTC
Prognozė galioja nuo 25 metu 12 UTC su 26 metu 18 UTC
Vėjas 15 kt iš Šiaurės su gūsio iki 23 kt
Matomumas: 10 km
Mažai debesys ne aukštis 15000 ft

TAF: PANC 251120Z 2512/2618 01015G23KT P6SM FEW150

Orai ataskaitas ir orų prognozės (METAR, TAF).

turimą stotys yra geltonos ir raudonos taškus žemėlapyje.

Perkelti pele per norėdami pamatyti stoties vardą.

Tada spustelėkite, norėdami matyti oro stebėjimo ir prognozės.

Norėdami pakeisti žemėlapį: spustelėkite ant žalios mygtukų su juodo kryžiaus žemyn,; žalią mygtuką su brūkšneliu, jei norite nutolinti; arba žalių rodyklių gretimoms žemėlapius.


METAR-TAF: